sensor_id;sensor_type;location;lat;lon;timestamp;pressure;altitude;pressure_sealevel;temperature;humidity
69257;BME280;56376;53.356;-1.748;2023-04-22T00:01:46;98772.53;;;7.97;100.00
69257;BME280;56376;53.356;-1.748;2023-04-22T00:04:12;98765.63;;;7.96;100.00
69257;BME280;56376;53.356;-1.748;2023-04-22T00:06:37;98765.63;;;7.96;100.00
69257;BME280;56376;53.356;-1.748;2023-04-22T00:09:02;98766.50;;;7.96;100.00
69257;BME280;56376;53.356;-1.748;2023-04-22T00:11:28;98757.94;;;7.93;100.00
69257;BME280;56376;53.356;-1.748;2023-04-22T00:13:53;98765.81;;;7.91;100.00
69257;BME280;56376;53.356;-1.748;2023-04-22T00:16:18;98758.88;;;7.92;100.00
69257;BME280;56376;53.356;-1.748;2023-04-22T00:18:45;98753.78;;;7.89;100.00
69257;BME280;56376;53.356;-1.748;2023-04-22T00:21:10;98752.81;;;7.91;100.00
69257;BME280;56376;53.356;-1.748;2023-04-22T00:23:36;98751.94;;;7.91;100.00
69257;BME280;56376;53.356;-1.748;2023-04-22T00:26:01;98745.91;;;7.90;100.00
69257;BME280;56376;53.356;-1.748;2023-04-22T00:28:27;98737.25;;;7.90;100.00
69257;BME280;56376;53.356;-1.748;2023-04-22T00:30:52;98737.25;;;7.90;100.00
69257;BME280;56376;53.356;-1.748;2023-04-22T00:33:18;98736.31;;;7.92;100.00
69257;BME280;56376;53.356;-1.748;2023-04-22T00:35:45;98733.75;;;7.91;100.00
69257;BME280;56376;53.356;-1.748;2023-04-22T00:38:10;98719.06;;;7.90;100.00
69257;BME280;56376;53.356;-1.748;2023-04-22T00:40:36;98719.78;;;7.93;100.00
69257;BME280;56376;53.356;-1.748;2023-04-22T00:43:02;98719.72;;;7.95;100.00
69257;BME280;56376;53.356;-1.748;2023-04-22T00:45:29;98712.84;;;7.94;100.00
69257;BME280;56376;53.356;-1.748;2023-04-22T00:47:55;98707.66;;;7.94;100.00
69257;BME280;56376;53.356;-1.748;2023-04-22T00:50:21;98698.13;;;7.93;100.00
69257;BME280;56376;53.356;-1.748;2023-04-22T00:52:46;98692.88;;;7.94;100.00
69257;BME280;56376;53.356;-1.748;2023-04-22T00:55:11;98692.16;;;7.91;100.00
69257;BME280;56376;53.356;-1.748;2023-04-22T00:57:38;98686.22;;;7.87;100.00
69257;BME280;56376;53.356;-1.748;2023-04-22T01:00:04;98680.06;;;7.90;100.00
69257;BME280;56376;53.356;-1.748;2023-04-22T01:02:30;98667.91;;;7.90;100.00
69257;BME280;56376;53.356;-1.748;2023-04-22T01:04:55;98670.50;;;7.90;100.00
69257;BME280;56376;53.356;-1.748;2023-04-22T01:07:21;98659.25;;;7.90;100.00
69257;BME280;56376;53.356;-1.748;2023-04-22T01:09:47;98660.06;;;7.92;100.00
69257;BME280;56376;53.356;-1.748;2023-04-22T01:12:12;98659.13;;;7.93;100.00
69257;BME280;56376;53.356;-1.748;2023-04-22T01:14:38;98654.84;;;7.92;100.00
69257;BME280;56376;53.356;-1.748;2023-04-22T01:17:03;98652.31;;;7.90;100.00
69257;BME280;56376;53.356;-1.748;2023-04-22T01:19:30;98650.63;;;7.89;100.00
69257;BME280;56376;53.356;-1.748;2023-04-22T01:21:58;98654.06;;;7.90;100.00
69257;BME280;56376;53.356;-1.748;2023-04-22T01:24:24;98641.19;;;7.87;100.00
69257;BME280;56376;53.356;-1.748;2023-04-22T01:26:50;98637.66;;;7.88;100.00
69257;BME280;56376;53.356;-1.748;2023-04-22T01:29:18;98631.69;;;7.86;100.00
69257;BME280;56376;53.356;-1.748;2023-04-22T01:31:44;98644.56;;;7.89;100.00
69257;BME280;56376;53.356;-1.748;2023-04-22T01:34:10;98633.59;;;7.80;100.00
69257;BME280;56376;53.356;-1.748;2023-04-22T01:36:35;98625.09;;;7.77;100.00
69257;BME280;56376;53.356;-1.748;2023-04-22T01:39:01;98617.28;;;7.77;100.00
69257;BME280;56376;53.356;-1.748;2023-04-22T01:41:26;98620.75;;;7.77;100.00
69257;BME280;56376;53.356;-1.748;2023-04-22T01:43:52;98606.09;;;7.75;100.00
69257;BME280;56376;53.356;-1.748;2023-04-22T01:46:18;98612.22;;;7.74;100.00
69257;BME280;56376;53.356;-1.748;2023-04-22T01:48:44;98607.06;;;7.72;100.00
69257;BME280;56376;53.356;-1.748;2023-04-22T01:51:15;98604.44;;;7.74;100.00
69257;BME280;56376;53.356;-1.748;2023-04-22T01:53:41;98601.88;;;7.72;100.00
69257;BME280;56376;53.356;-1.748;2023-04-22T01:56:06;98610.50;;;7.73;100.00
69257;BME280;56376;53.356;-1.748;2023-04-22T01:58:32;98611.44;;;7.72;100.00
69257;BME280;56376;53.356;-1.748;2023-04-22T02:00:57;98603.69;;;7.70;100.00
69257;BME280;56376;53.356;-1.748;2023-04-22T02:03:23;98605.28;;;7.74;100.00
69257;BME280;56376;53.356;-1.748;2023-04-22T02:05:48;98604.34;;;7.75;100.00
69257;BME280;56376;53.356;-1.748;2023-04-22T02:08:14;98593.16;;;7.73;100.00
69257;BME280;56376;53.356;-1.748;2023-04-22T02:10:39;98595.75;;;7.73;100.00
69257;BME280;56376;53.356;-1.748;2023-04-22T02:13:05;98603.47;;;7.76;100.00
69257;BME280;56376;53.356;-1.748;2023-04-22T02:15:30;98595.72;;;7.75;100.00
69257;BME280;56376;53.356;-1.748;2023-04-22T02:17:55;98600.88;;;7.76;100.00
69257;BME280;56376;53.356;-1.748;2023-04-22T02:20:21;98601.75;;;7.75;100.00
69257;BME280;56376;53.356;-1.748;2023-04-22T02:22:46;98585.34;;;7.73;100.00
69257;BME280;56376;53.356;-1.748;2023-04-22T02:25:15;98582.72;;;7.75;100.00
69257;BME280;56376;53.356;-1.748;2023-04-22T02:27:41;98587.13;;;7.73;100.00
69257;BME280;56376;53.356;-1.748;2023-04-22T02:30:07;98580.25;;;7.72;100.00
69257;BME280;56376;53.356;-1.748;2023-04-22T02:32:33;98575.88;;;7.72;100.00
69257;BME280;56376;53.356;-1.748;2023-04-22T02:35:01;98574.13;;;7.73;100.00
69257;BME280;56376;53.356;-1.748;2023-04-22T02:37:27;98566.31;;;7.73;100.00
69257;BME280;56376;53.356;-1.748;2023-04-22T02:39:52;98556.91;;;7.70;100.00
69257;BME280;56376;53.356;-1.748;2023-04-22T02:42:18;98555.09;;;7.72;100.00
69257;BME280;56376;53.356;-1.748;2023-04-22T02:44:43;98555.94;;;7.73;100.00
69257;BME280;56376;53.356;-1.748;2023-04-22T02:47:08;98550.72;;;7.73;100.00
69257;BME280;56376;53.356;-1.748;2023-04-22T02:49:34;98559.31;;;7.75;100.00
69257;BME280;56376;53.356;-1.748;2023-04-22T02:51:59;98537.72;;;7.73;100.00
69257;BME280;56376;53.356;-1.748;2023-04-22T02:54:25;98539.44;;;7.74;100.00
69257;BME280;56376;53.356;-1.748;2023-04-22T02:56:50;98540.47;;;7.70;100.00
69257;BME280;56376;53.356;-1.748;2023-04-22T02:59:15;98532.63;;;7.71;100.00
69257;BME280;56376;53.356;-1.748;2023-04-22T03:01:41;98529.16;;;7.71;100.00
69257;BME280;56376;53.356;-1.748;2023-04-22T03:04:06;98531.66;;;7.74;100.00
69257;BME280;56376;53.356;-1.748;2023-04-22T03:06:31;98518.75;;;7.71;100.00
69257;BME280;56376;53.356;-1.748;2023-04-22T03:08:57;98517.91;;;7.70;100.00
69257;BME280;56376;53.356;-1.748;2023-04-22T03:11:22;98521.34;;;7.71;100.00
69257;BME280;56376;53.356;-1.748;2023-04-22T03:13:48;98523.91;;;7.72;100.00
69257;BME280;56376;53.356;-1.748;2023-04-22T03:16:15;98504.03;;;7.71;100.00
69257;BME280;56376;53.356;-1.748;2023-04-22T03:18:40;98498.81;;;7.71;100.00
69257;BME280;56376;53.356;-1.748;2023-04-22T03:21:06;98502.41;;;7.69;100.00
69257;BME280;56376;53.356;-1.748;2023-04-22T03:23:31;98492.00;;;7.69;100.00
69257;BME280;56376;53.356;-1.748;2023-04-22T03:25:57;98485.16;;;7.66;100.00
69257;BME280;56376;53.356;-1.748;2023-04-22T03:28:23;98475.66;;;7.65;100.00
69257;BME280;56376;53.356;-1.748;2023-04-22T03:30:48;98470.47;;;7.65;100.00
69257;BME280;56376;53.356;-1.748;2023-04-22T03:33:13;98462.63;;;7.67;100.00
69257;BME280;56376;53.356;-1.748;2023-04-22T03:35:39;98473.00;;;7.67;100.00
69257;BME280;56376;53.356;-1.748;2023-04-22T03:38:04;98463.50;;;7.66;100.00
69257;BME280;56376;53.356;-1.748;2023-04-22T03:40:29;98455.72;;;7.66;100.00
69257;BME280;56376;53.356;-1.748;2023-04-22T03:42:55;98449.63;;;7.67;100.00
69257;BME280;56376;53.356;-1.748;2023-04-22T03:45:20;98448.88;;;7.63;100.00
69257;BME280;56376;53.356;-1.748;2023-04-22T03:47:46;98448.03;;;7.63;100.00
69257;BME280;56376;53.356;-1.748;2023-04-22T03:50:11;98444.56;;;7.64;100.00
69257;BME280;56376;53.356;-1.748;2023-04-22T03:52:36;98445.41;;;7.64;100.00
69257;BME280;56376;53.356;-1.748;2023-04-22T03:55:02;98442.06;;;7.61;100.00
69257;BME280;56376;53.356;-1.748;2023-04-22T03:57:27;98441.16;;;7.62;100.00
69257;BME280;56376;53.356;-1.748;2023-04-22T03:59:53;98432.63;;;7.58;100.00
69257;BME280;56376;53.356;-1.748;2023-04-22T04:02:20;98430.03;;;7.58;100.00
69257;BME280;56376;53.356;-1.748;2023-04-22T04:04:46;98422.38;;;7.55;100.00
69257;BME280;56376;53.356;-1.748;2023-04-22T04:07:12;98423.34;;;7.52;100.00
69257;BME280;56376;53.356;-1.748;2023-04-22T04:09:37;98418.16;;;7.52;100.00
69257;BME280;56376;53.356;-1.748;2023-04-22T04:12:03;98414.84;;;7.49;100.00
69257;BME280;56376;53.356;-1.748;2023-04-22T04:14:28;98413.94;;;7.50;100.00
69257;BME280;56376;53.356;-1.748;2023-04-22T04:16:54;98406.28;;;7.47;100.00
69257;BME280;56376;53.356;-1.748;2023-04-22T04:19:19;98408.88;;;7.47;100.00
69257;BME280;56376;53.356;-1.748;2023-04-22T04:21:45;98396.75;;;7.46;100.00
69257;BME280;56376;53.356;-1.748;2023-04-22T04:24:11;98405.28;;;7.49;100.00
69257;BME280;56376;53.356;-1.748;2023-04-22T04:26:36;98397.41;;;7.51;100.00
69257;BME280;56376;53.356;-1.748;2023-04-22T04:29:02;98388.72;;;7.52;100.00
69257;BME280;56376;53.356;-1.748;2023-04-22T04:31:27;98387.81;;;7.53;100.00
69257;BME280;56376;53.356;-1.748;2023-04-22T04:33:53;98378.47;;;7.49;100.00
69257;BME280;56376;53.356;-1.748;2023-04-22T04:36:21;98379.19;;;7.52;100.00
69257;BME280;56376;53.356;-1.748;2023-04-22T04:38:46;98381.81;;;7.51;100.00
69257;BME280;56376;53.356;-1.748;2023-04-22T04:41:12;98385.28;;;7.51;100.00
69257;BME280;56376;53.356;-1.748;2023-04-22T04:43:38;98374.94;;;7.50;100.00
69257;BME280;56376;53.356;-1.748;2023-04-22T04:46:04;98374.03;;;7.51;100.00
69257;BME280;56376;53.356;-1.748;2023-04-22T04:48:30;98364.56;;;7.50;100.00
69257;BME280;56376;53.356;-1.748;2023-04-22T04:51:00;98362.75;;;7.52;100.00
69257;BME280;56376;53.356;-1.748;2023-04-22T04:53:25;98372.22;;;7.53;100.00
69257;BME280;56376;53.356;-1.748;2023-04-22T04:55:51;98361.03;;;7.51;100.00
69257;BME280;56376;53.356;-1.748;2023-04-22T04:58:16;98368.78;;;7.52;100.00
69257;BME280;56376;53.356;-1.748;2023-04-22T05:00:41;98368.72;;;7.54;100.00
69257;BME280;56376;53.356;-1.748;2023-04-22T05:03:07;98374.75;;;7.54;100.00
69257;BME280;56376;53.356;-1.748;2023-04-22T05:05:32;98370.41;;;7.55;100.00
69257;BME280;56376;53.356;-1.748;2023-04-22T05:07:58;98376.53;;;7.54;100.00
69257;BME280;56376;53.356;-1.748;2023-04-22T05:10:23;98375.69;;;7.53;100.00
69257;BME280;56376;53.356;-1.748;2023-04-22T05:12:49;98369.56;;;7.54;100.00
69257;BME280;56376;53.356;-1.748;2023-04-22T05:15:15;98368.66;;;7.55;100.00
69257;BME280;56376;53.356;-1.748;2023-04-22T05:17:40;98374.72;;;7.56;100.00
69257;BME280;56376;53.356;-1.748;2023-04-22T05:20:06;98372.03;;;7.57;100.00
69257;BME280;56376;53.356;-1.748;2023-04-22T05:22:33;98371.19;;;7.57;100.00
69257;BME280;56376;53.356;-1.748;2023-04-22T05:24:58;98372.94;;;7.56;100.00
69257;BME280;56376;53.356;-1.748;2023-04-22T05:27:24;98367.81;;;7.55;100.00
69257;BME280;56376;53.356;-1.748;2023-04-22T05:29:49;98364.38;;;7.54;100.00
69257;BME280;56376;53.356;-1.748;2023-04-22T05:32:14;98369.50;;;7.56;100.00
69257;BME280;56376;53.356;-1.748;2023-04-22T05:34:40;98362.59;;;7.55;100.00
69257;BME280;56376;53.356;-1.748;2023-04-22T05:37:06;98363.41;;;7.57;100.00
69257;BME280;56376;53.356;-1.748;2023-04-22T05:39:32;98368.59;;;7.57;100.00
69257;BME280;56376;53.356;-1.748;2023-04-22T05:41:57;98365.22;;;7.55;100.00
69257;BME280;56376;53.356;-1.748;2023-04-22T05:44:23;98364.31;;;7.56;100.00
69257;BME280;56376;53.356;-1.748;2023-04-22T05:46:48;98363.44;;;7.55;100.00
69257;BME280;56376;53.356;-1.748;2023-04-22T05:49:14;98369.50;;;7.56;100.00
69257;BME280;56376;53.356;-1.748;2023-04-22T05:51:41;98359.97;;;7.56;100.00
69257;BME280;56376;53.356;-1.748;2023-04-22T05:54:06;98363.41;;;7.57;100.00
69257;BME280;56376;53.356;-1.748;2023-04-22T05:56:31;98361.72;;;7.56;100.00
69257;BME280;56376;53.356;-1.748;2023-04-22T05:58:57;98366.00;;;7.57;100.00
69257;BME280;56376;53.356;-1.748;2023-04-22T06:01:22;98362.59;;;7.55;100.00
69257;BME280;56376;53.356;-1.748;2023-04-22T06:03:49;98373.00;;;7.55;100.00
69257;BME280;56376;53.356;-1.748;2023-04-22T06:06:14;98375.56;;;7.56;100.00
69257;BME280;56376;53.356;-1.748;2023-04-22T06:08:39;98374.72;;;7.56;100.00
69257;BME280;56376;53.356;-1.748;2023-04-22T06:11:05;98367.75;;;7.56;100.00
69257;BME280;56376;53.356;-1.748;2023-04-22T06:13:30;98366.91;;;7.56;100.00
69257;BME280;56376;53.356;-1.748;2023-04-22T06:15:56;98376.38;;;7.57;100.00
69257;BME280;56376;53.356;-1.748;2023-04-22T06:18:21;98371.25;;;7.55;100.00
69257;BME280;56376;53.356;-1.748;2023-04-22T06:20:46;98373.78;;;7.57;100.00
69257;BME280;56376;53.356;-1.748;2023-04-22T06:23:12;98370.25;;;7.58;100.00
69257;BME280;56376;53.356;-1.748;2023-04-22T06:25:37;98364.31;;;7.56;100.00
69257;BME280;56376;53.356;-1.748;2023-04-22T06:28:02;98363.44;;;7.55;100.00
69257;BME280;56376;53.356;-1.748;2023-04-22T06:30:28;98368.66;;;7.55;100.00
69257;BME280;56376;53.356;-1.748;2023-04-22T06:32:53;98364.41;;;7.53;100.00
69257;BME280;56376;53.356;-1.748;2023-04-22T06:35:20;98358.34;;;7.54;100.00
69257;BME280;56376;53.356;-1.748;2023-04-22T06:37:46;98346.38;;;7.50;100.00
69257;BME280;56376;53.356;-1.748;2023-04-22T06:40:13;98351.56;;;7.50;100.00
69257;BME280;56376;53.356;-1.748;2023-04-22T06:42:38;98356.91;;;7.47;100.00
69257;BME280;56376;53.356;-1.748;2023-04-22T06:45:04;98349.88;;;7.49;100.00
69257;BME280;56376;53.356;-1.748;2023-04-22T06:47:30;98344.75;;;7.47;100.00
69257;BME280;56376;53.356;-1.748;2023-04-22T06:49:55;98348.03;;;7.51;100.00
69257;BME280;56376;53.356;-1.748;2023-04-22T06:52:21;98348.91;;;7.51;100.00
69257;BME280;56376;53.356;-1.748;2023-04-22T06:54:46;98347.22;;;7.50;100.00
69257;BME280;56376;53.356;-1.748;2023-04-22T06:57:11;98349.81;;;7.50;100.00
69257;BME280;56376;53.356;-1.748;2023-04-22T06:59:37;98349.81;;;7.50;100.00
69257;BME280;56376;53.356;-1.748;2023-04-22T07:02:02;98358.53;;;7.49;100.00
69257;BME280;56376;53.356;-1.748;2023-04-22T07:04:28;98359.50;;;7.47;100.00
69257;BME280;56376;53.356;-1.748;2023-04-22T07:06:55;98360.47;;;7.44;100.00
69257;BME280;56376;53.356;-1.748;2023-04-22T07:09:20;98353.66;;;7.42;100.00
69257;BME280;56376;53.356;-1.748;2023-04-22T07:11:46;98354.69;;;7.37;100.00
69257;BME280;56376;53.356;-1.748;2023-04-22T07:14:11;98360.78;;;7.36;100.00
69257;BME280;56376;53.356;-1.748;2023-04-22T07:16:37;98357.28;;;7.37;100.00
69257;BME280;56376;53.356;-1.748;2023-04-22T07:19:03;98348.50;;;7.40;100.00
69257;BME280;56376;53.356;-1.748;2023-04-22T07:21:30;98351.06;;;7.42;100.00
69257;BME280;56376;53.356;-1.748;2023-04-22T07:23:56;98352.91;;;7.38;100.00
69257;BME280;56376;53.356;-1.748;2023-04-22T07:26:22;98347.94;;;7.33;100.00
69257;BME280;56376;53.356;-1.748;2023-04-22T07:28:47;98342.75;;;7.33;100.00
69257;BME280;56376;53.356;-1.748;2023-04-22T07:31:13;98348.66;;;7.37;100.00
69257;BME280;56376;53.356;-1.748;2023-04-22T07:33:38;98346.03;;;7.37;100.00
69257;BME280;56376;53.356;-1.748;2023-04-22T07:36:05;98335.59;;;7.39;100.00
69257;BME280;56376;53.356;-1.748;2023-04-22T07:38:30;98337.13;;;7.43;100.00
69257;BME280;56376;53.356;-1.748;2023-04-22T07:40:56;98338.75;;;7.45;100.00
69257;BME280;56376;53.356;-1.748;2023-04-22T07:43:21;98338.75;;;7.45;100.00
69257;BME280;56376;53.356;-1.748;2023-04-22T07:45:47;98338.53;;;7.51;100.00
69257;BME280;56376;53.356;-1.748;2023-04-22T07:48:12;98338.34;;;7.56;100.00
69257;BME280;56376;53.356;-1.748;2023-04-22T07:50:38;98338.19;;;7.59;100.00
69257;BME280;56376;53.356;-1.748;2023-04-22T07:53:03;98332.81;;;7.64;100.00
69257;BME280;56376;53.356;-1.748;2023-04-22T07:55:30;98338.06;;;7.62;100.00
69257;BME280;56376;53.356;-1.748;2023-04-22T07:57:55;98337.06;;;7.65;100.00
69257;BME280;56376;53.356;-1.748;2023-04-22T08:00:21;98326.53;;;7.68;100.00
69257;BME280;56376;53.356;-1.748;2023-04-22T08:02:46;98332.47;;;7.71;100.00
69257;BME280;56376;53.356;-1.748;2023-04-22T08:05:11;98329.88;;;7.71;100.00
69257;BME280;56376;53.356;-1.748;2023-04-22T08:07:37;98335.72;;;7.76;100.00
69257;BME280;56376;53.356;-1.748;2023-04-22T08:10:03;98339.84;;;7.80;100.00
69257;BME280;56376;53.356;-1.748;2023-04-22T08:12:29;98338.94;;;7.82;100.00
69257;BME280;56376;53.356;-1.748;2023-04-22T08:14:54;98333.47;;;7.88;100.00
69257;BME280;56376;53.356;-1.748;2023-04-22T08:17:19;98330.38;;;7.98;100.00
69257;BME280;56376;53.356;-1.748;2023-04-22T08:19:47;98320.41;;;8.08;100.00
69257;BME280;56376;53.356;-1.748;2023-04-22T08:22:13;98329.63;;;8.15;100.00
69257;BME280;56376;53.356;-1.748;2023-04-22T08:24:38;98331.38;;;8.15;100.00
69257;BME280;56376;53.356;-1.748;2023-04-22T08:27:04;98327.16;;;8.12;100.00
69257;BME280;56376;53.356;-1.748;2023-04-22T08:29:29;98329.63;;;8.15;100.00
69257;BME280;56376;53.356;-1.748;2023-04-22T08:31:55;98329.47;;;8.18;100.00
69257;BME280;56376;53.356;-1.748;2023-04-22T08:34:20;98327.75;;;8.19;100.00
69257;BME280;56376;53.356;-1.748;2023-04-22T08:36:46;98320.69;;;8.21;100.00
69257;BME280;56376;53.356;-1.748;2023-04-22T08:39:12;98321.47;;;8.23;100.00
69257;BME280;56376;53.356;-1.748;2023-04-22T08:41:37;98313.50;;;8.26;100.00
69257;BME280;56376;53.356;-1.748;2023-04-22T08:44:03;98323.50;;;8.35;100.00
69257;BME280;56376;53.356;-1.748;2023-04-22T08:46:29;98308.56;;;8.40;100.00
69257;BME280;56376;53.356;-1.748;2023-04-22T08:48:55;98312.63;;;8.46;100.00
69257;BME280;56376;53.356;-1.748;2023-04-22T08:51:27;98306.38;;;8.50;100.00
69257;BME280;56376;53.356;-1.748;2023-04-22T08:53:52;98297.63;;;8.51;100.00
69257;BME280;56376;53.356;-1.748;2023-04-22T08:56:19;98297.50;;;8.54;100.00
69257;BME280;56376;53.356;-1.748;2023-04-22T08:58:45;98299.19;;;8.55;100.00
69257;BME280;56376;53.356;-1.748;2023-04-22T09:01:10;98292.38;;;8.53;100.00
69257;BME280;56376;53.356;-1.748;2023-04-22T09:03:40;98297.41;;;8.56;100.00
69257;BME280;56376;53.356;-1.748;2023-04-22T09:06:06;98306.84;;;8.58;100.00
69257;BME280;56376;53.356;-1.748;2023-04-22T09:08:32;98298.81;;;8.63;100.00
69257;BME280;56376;53.356;-1.748;2023-04-22T09:10:58;98291.56;;;8.70;100.00
69257;BME280;56376;53.356;-1.748;2023-04-22T09:13:25;98297.31;;;8.76;100.00
69257;BME280;56376;53.356;-1.748;2023-04-22T09:15:51;98297.25;;;8.78;100.00
69257;BME280;56376;53.356;-1.748;2023-04-22T09:18:17;98305.94;;;8.77;100.00
69257;BME280;56376;53.356;-1.748;2023-04-22T09:20:43;98297.31;;;8.76;100.00
69257;BME280;56376;53.356;-1.748;2023-04-22T09:23:11;98307.66;;;8.78;100.00
69257;BME280;56376;53.356;-1.748;2023-04-22T09:25:37;98304.91;;;8.81;100.00
69257;BME280;56376;53.356;-1.748;2023-04-22T09:28:02;98307.34;;;8.84;100.00
69257;BME280;56376;53.356;-1.748;2023-04-22T09:30:33;98292.59;;;8.84;100.00
69257;BME280;56376;53.356;-1.748;2023-04-22T09:33:00;98292.06;;;8.95;100.00
69257;BME280;56376;53.356;-1.748;2023-04-22T09:35:32;98300.16;;;9.06;100.00
69257;BME280;56376;53.356;-1.748;2023-04-22T09:37:59;98288.47;;;9.15;100.00
69257;BME280;56376;53.356;-1.748;2023-04-22T09:40:25;98282.47;;;9.30;100.00
69257;BME280;56376;53.356;-1.748;2023-04-22T09:42:55;98290.94;;;9.51;100.00
69257;BME280;56376;53.356;-1.748;2023-04-22T09:45:35;98279.06;;;9.79;100.00
69257;BME280;56376;53.356;-1.748;2023-04-22T09:48:07;98289.56;;;10.11;100.00
69257;BME280;56376;53.356;-1.748;2023-04-22T09:50:38;98286.31;;;10.39;100.00
69257;BME280;56376;53.356;-1.748;2023-04-22T09:53:09;98282.91;;;10.69;100.00
69257;BME280;56376;53.356;-1.748;2023-04-22T09:55:44;98286.84;;;10.92;100.00
69257;BME280;56376;53.356;-1.748;2023-04-22T09:58:12;98282.06;;;10.98;100.00
69257;BME280;56376;53.356;-1.748;2023-04-22T10:00:51;98284.53;;;11.01;100.00
69257;BME280;56376;53.356;-1.748;2023-04-22T10:03:17;98283.53;;;11.04;100.00
69257;BME280;56376;53.356;-1.748;2023-04-22T10:05:43;98287.22;;;11.00;100.00
69257;BME280;56376;53.356;-1.748;2023-04-22T10:08:10;98291.69;;;10.98;100.00
69257;BME280;56376;53.356;-1.748;2023-04-22T10:10:36;98287.97;;;11.02;100.00
69257;BME280;56376;53.356;-1.748;2023-04-22T10:13:02;98276.91;;;11.13;100.00
69257;BME280;56376;53.356;-1.748;2023-04-22T10:15:34;98280.00;;;11.19;100.00
69257;BME280;56376;53.356;-1.748;2023-04-22T10:18:06;98280.38;;;11.27;100.00
69257;BME280;56376;53.356;-1.748;2023-04-22T10:20:35;98276.81;;;11.29;100.00
69257;BME280;56376;53.356;-1.748;2023-04-22T10:23:04;98276.00;;;11.28;100.00
69257;BME280;56376;53.356;-1.748;2023-04-22T10:25:29;98276.00;;;11.28;100.00
69257;BME280;56376;53.356;-1.748;2023-04-22T10:28:07;98285.88;;;11.23;100.00
69257;BME280;56376;53.356;-1.748;2023-04-22T10:30:34;98279.31;;;11.16;100.00
69257;BME280;56376;53.356;-1.748;2023-04-22T10:36:20;98288.06;;;11.00;100.00
69257;BME280;56376;53.356;-1.748;2023-04-22T10:41:24;98277.88;;;10.96;100.00
69257;BME280;56376;53.356;-1.748;2023-04-22T10:44:06;98279.75;;;10.94;100.00
69257;BME280;56376;53.356;-1.748;2023-04-22T10:49:19;98287.16;;;10.86;100.00
69257;BME280;56376;53.356;-1.748;2023-04-22T10:51:48;98287.34;;;10.82;100.00
69257;BME280;56376;53.356;-1.748;2023-04-22T10:59:31;98277.28;;;10.91;100.00
69257;BME280;56376;53.356;-1.748;2023-04-22T11:02:00;98279.66;;;10.95;100.00
69257;BME280;56376;53.356;-1.748;2023-04-22T11:04:26;98272.50;;;10.99;100.00
69257;BME280;56376;53.356;-1.748;2023-04-22T11:09:43;98284.53;;;11.01;100.00
69257;BME280;56376;53.356;-1.748;2023-04-22T11:15:18;98274.81;;;11.03;100.00
69257;BME280;56376;53.356;-1.748;2023-04-22T11:17:49;98278.09;;;11.07;100.00
69257;BME280;56376;53.356;-1.748;2023-04-22T11:20:15;98276.25;;;11.09;100.00
69257;BME280;56376;53.356;-1.748;2023-04-22T11:22:46;98281.88;;;11.17;100.00
69257;BME280;56376;53.356;-1.748;2023-04-22T11:25:12;98281.69;;;11.20;99.62
69257;BME280;56376;53.356;-1.748;2023-04-22T11:27:38;98274.78;;;11.19;97.58
69257;BME280;56376;53.356;-1.748;2023-04-22T11:30:09;98286.06;;;11.20;96.90
69257;BME280;56376;53.356;-1.748;2023-04-22T11:32:36;98283.38;;;11.21;97.00
69257;BME280;56376;53.356;-1.748;2023-04-22T11:35:04;98283.84;;;11.28;97.15
69257;BME280;56376;53.356;-1.748;2023-04-22T11:37:43;98273.75;;;11.36;96.10
69257;BME280;56376;53.356;-1.748;2023-04-22T11:40:20;98276.78;;;11.44;95.29
69257;BME280;56376;53.356;-1.748;2023-04-22T11:42:49;98268.47;;;11.52;96.02
69257;BME280;56376;53.356;-1.748;2023-04-22T11:45:15;98278.75;;;11.55;93.48
69257;BME280;56376;53.356;-1.748;2023-04-22T11:47:41;98272.56;;;11.56;95.27
69257;BME280;56376;53.356;-1.748;2023-04-22T11:50:09;98271.66;;;11.57;95.83
69257;BME280;56376;53.356;-1.748;2023-04-22T11:55:28;98275.09;;;11.58;93.21
69257;BME280;56376;53.356;-1.748;2023-04-22T11:58:16;98279.31;;;11.60;92.27
69257;BME280;56376;53.356;-1.748;2023-04-22T12:00:45;98278.56;;;11.58;90.77
69257;BME280;56376;53.356;-1.748;2023-04-22T12:08:21;98269.50;;;11.78;96.63
69257;BME280;56376;53.356;-1.748;2023-04-22T12:10:51;98266.13;;;11.76;91.32
69257;BME280;56376;53.356;-1.748;2023-04-22T12:13:28;98268.59;;;11.79;88.69
69257;BME280;56376;53.356;-1.748;2023-04-22T12:16:13;98270.25;;;11.80;86.12
69257;BME280;56376;53.356;-1.748;2023-04-22T12:18:49;98263.25;;;11.81;84.78
69257;BME280;56376;53.356;-1.748;2023-04-22T12:21:17;98270.25;;;11.80;84.03
69257;BME280;56376;53.356;-1.748;2023-04-22T12:23:44;98264.00;;;11.83;83.88
69257;BME280;56376;53.356;-1.748;2023-04-22T12:26:11;98267.56;;;11.82;82.68
69257;BME280;56376;53.356;-1.748;2023-04-22T12:28:37;98271.28;;;11.78;81.65
69257;BME280;56376;53.356;-1.748;2023-04-22T12:31:03;98262.50;;;11.79;81.43
69257;BME280;56376;53.356;-1.748;2023-04-22T12:33:29;98269.50;;;11.78;80.99
69257;BME280;56376;53.356;-1.748;2023-04-22T12:35:54;98261.66;;;11.78;81.48
69257;BME280;56376;53.356;-1.748;2023-04-22T12:38:20;98263.25;;;11.81;84.08
69257;BME280;56376;53.356;-1.748;2023-04-22T12:40:45;98268.16;;;11.87;84.44
69257;BME280;56376;53.356;-1.748;2023-04-22T12:43:10;98264.38;;;11.91;83.82
69257;BME280;56376;53.356;-1.748;2023-04-22T12:45:36;98267.66;;;11.95;83.27
69257;BME280;56376;53.356;-1.748;2023-04-22T12:48:02;98272.03;;;11.94;82.68
69257;BME280;56376;53.356;-1.748;2023-04-22T12:50:27;98266.81;;;11.94;81.84
69257;BME280;56376;53.356;-1.748;2023-04-22T12:52:53;98270.16;;;11.96;81.85
69257;BME280;56376;53.356;-1.748;2023-04-22T12:55:19;98262.44;;;11.95;80.22
69257;BME280;56376;53.356;-1.748;2023-04-22T12:57:47;98259.91;;;11.93;80.77
69257;BME280;56376;53.356;-1.748;2023-04-22T13:00:13;98257.09;;;11.96;81.24
69257;BME280;56376;53.356;-1.748;2023-04-22T13:02:40;98259.91;;;11.93;80.52
69257;BME280;56376;53.356;-1.748;2023-04-22T13:05:06;98270.09;;;11.98;81.34
69257;BME280;56376;53.356;-1.748;2023-04-22T13:07:31;98262.03;;;12.01;81.59
69257;BME280;56376;53.356;-1.748;2023-04-22T13:09:57;98255.22;;;11.98;81.44
69257;BME280;56376;53.356;-1.748;2023-04-22T13:12:23;98259.50;;;11.99;80.03